sensor_id;sensor_type;location;lat;lon;timestamp;P1;durP1;ratioP1;P2;durP2;ratioP2
51612;SDS011;37694;51.748;14.326;2024-01-15T00:01:33;7.13;;;4.20;;
51612;SDS011;37694;51.748;14.326;2024-01-15T00:03:59;4.97;;;4.47;;
51612;SDS011;37694;51.748;14.326;2024-01-15T00:06:25;4.65;;;4.25;;
51612;SDS011;37694;51.748;14.326;2024-01-15T00:08:53;4.30;;;3.90;;
51612;SDS011;37694;51.748;14.326;2024-01-15T00:11:19;4.97;;;4.50;;
51612;SDS011;37694;51.748;14.326;2024-01-15T00:13:44;4.30;;;3.90;;
51612;SDS011;37694;51.748;14.326;2024-01-15T00:16:10;5.50;;;4.65;;
51612;SDS011;37694;51.748;14.326;2024-01-15T00:18:37;5.03;;;4.15;;
51612;SDS011;37694;51.748;14.326;2024-01-15T00:21:02;4.60;;;4.18;;
51612;SDS011;37694;51.748;14.326;2024-01-15T00:23:28;5.22;;;4.50;;
51612;SDS011;37694;51.748;14.326;2024-01-15T00:25:54;4.00;;;3.70;;
51612;SDS011;37694;51.748;14.326;2024-01-15T00:28:19;4.40;;;4.00;;
51612;SDS011;37694;51.748;14.326;2024-01-15T00:30:45;5.25;;;4.28;;
51612;SDS011;37694;51.748;14.326;2024-01-15T00:33:11;5.47;;;4.60;;
51612;SDS011;37694;51.748;14.326;2024-01-15T00:35:37;4.68;;;4.10;;
51612;SDS011;37694;51.748;14.326;2024-01-15T00:38:03;5.07;;;4.30;;
51612;SDS011;37694;51.748;14.326;2024-01-15T00:40:29;4.78;;;4.32;;
51612;SDS011;37694;51.748;14.326;2024-01-15T00:42:54;7.55;;;4.32;;
51612;SDS011;37694;51.748;14.326;2024-01-15T00:45:20;4.95;;;4.40;;
51612;SDS011;37694;51.748;14.326;2024-01-15T00:47:46;4.95;;;4.28;;
51612;SDS011;37694;51.748;14.326;2024-01-15T00:50:11;4.90;;;4.40;;
51612;SDS011;37694;51.748;14.326;2024-01-15T00:52:37;4.43;;;4.03;;
51612;SDS011;37694;51.748;14.326;2024-01-15T00:55:03;4.45;;;4.05;;
51612;SDS011;37694;51.748;14.326;2024-01-15T00:57:30;4.38;;;3.97;;
51612;SDS011;37694;51.748;14.326;2024-01-15T00:59:55;4.90;;;4.30;;
51612;SDS011;37694;51.748;14.326;2024-01-15T01:02:21;4.95;;;4.45;;
51612;SDS011;37694;51.748;14.326;2024-01-15T01:04:46;5.05;;;4.53;;
51612;SDS011;37694;51.748;14.326;2024-01-15T01:07:12;4.72;;;4.28;;
51612;SDS011;37694;51.748;14.326;2024-01-15T01:09:38;5.05;;;3.92;;
51612;SDS011;37694;51.748;14.326;2024-01-15T01:12:03;4.07;;;3.72;;
51612;SDS011;37694;51.748;14.326;2024-01-15T01:14:29;4.18;;;3.88;;
51612;SDS011;37694;51.748;14.326;2024-01-15T01:16:55;5.03;;;4.43;;
51612;SDS011;37694;51.748;14.326;2024-01-15T01:19:21;4.93;;;4.35;;
51612;SDS011;37694;51.748;14.326;2024-01-15T01:21:46;4.95;;;4.55;;
51612;SDS011;37694;51.748;14.326;2024-01-15T01:24:12;5.03;;;4.53;;
51612;SDS011;37694;51.748;14.326;2024-01-15T01:26:38;4.90;;;4.40;;
51612;SDS011;37694;51.748;14.326;2024-01-15T01:29:03;4.38;;;3.97;;
51612;SDS011;37694;51.748;14.326;2024-01-15T01:31:29;4.82;;;4.32;;
51612;SDS011;37694;51.748;14.326;2024-01-15T01:33:55;4.85;;;4.38;;
51612;SDS011;37694;51.748;14.326;2024-01-15T01:36:20;5.15;;;4.72;;
51612;SDS011;37694;51.748;14.326;2024-01-15T01:38:46;4.25;;;3.85;;
51612;SDS011;37694;51.748;14.326;2024-01-15T01:41:11;4.40;;;4.00;;
51612;SDS011;37694;51.748;14.326;2024-01-15T01:43:37;4.80;;;4.35;;
51612;SDS011;37694;51.748;14.326;2024-01-15T01:46:03;5.78;;;4.65;;
51612;SDS011;37694;51.748;14.326;2024-01-15T01:48:30;4.22;;;3.83;;
51612;SDS011;37694;51.748;14.326;2024-01-15T01:50:57;6.18;;;4.40;;
51612;SDS011;37694;51.748;14.326;2024-01-15T01:53:25;4.22;;;3.83;;
51612;SDS011;37694;51.748;14.326;2024-01-15T01:55:51;3.95;;;3.65;;
51612;SDS011;37694;51.748;14.326;2024-01-15T01:58:18;4.38;;;3.97;;
51612;SDS011;37694;51.748;14.326;2024-01-15T02:00:45;5.28;;;4.20;;
51612;SDS011;37694;51.748;14.326;2024-01-15T02:03:12;6.85;;;4.25;;
51612;SDS011;37694;51.748;14.326;2024-01-15T02:05:39;4.78;;;4.28;;
51612;SDS011;37694;51.748;14.326;2024-01-15T02:08:05;4.10;;;3.80;;
51612;SDS011;37694;51.748;14.326;2024-01-15T02:10:31;3.97;;;3.60;;
51612;SDS011;37694;51.748;14.326;2024-01-15T02:12:57;6.95;;;4.78;;
51612;SDS011;37694;51.748;14.326;2024-01-15T02:15:23;5.50;;;4.07;;
51612;SDS011;37694;51.748;14.326;2024-01-15T02:17:58;4.20;;;3.85;;
51612;SDS011;37694;51.748;14.326;2024-01-15T02:20:28;5.30;;;4.50;;
51612;SDS011;37694;51.748;14.326;2024-01-15T02:23:01;3.90;;;3.60;;
51612;SDS011;37694;51.748;14.326;2024-01-15T02:25:27;3.65;;;3.35;;
51612;SDS011;37694;51.748;14.326;2024-01-15T02:27:52;4.03;;;3.70;;
51612;SDS011;37694;51.748;14.326;2024-01-15T02:30:19;4.30;;;3.90;;
51612;SDS011;37694;51.748;14.326;2024-01-15T02:32:44;5.95;;;4.22;;
51612;SDS011;37694;51.748;14.326;2024-01-15T02:35:11;3.70;;;3.40;;
51612;SDS011;37694;51.748;14.326;2024-01-15T02:42:56;4.03;;;3.63;;
51612;SDS011;37694;51.748;14.326;2024-01-15T02:45:22;3.83;;;3.42;;
51612;SDS011;37694;51.748;14.326;2024-01-15T02:47:48;4.15;;;3.75;;
51612;SDS011;37694;51.748;14.326;2024-01-15T02:50:14;4.28;;;3.88;;
51612;SDS011;37694;51.748;14.326;2024-01-15T02:52:44;4.00;;;3.60;;
51612;SDS011;37694;51.748;14.326;2024-01-15T02:55:09;4.32;;;3.92;;
51612;SDS011;37694;51.748;14.326;2024-01-15T02:57:35;3.97;;;3.55;;
51612;SDS011;37694;51.748;14.326;2024-01-15T03:00:01;4.28;;;3.53;;
51612;SDS011;37694;51.748;14.326;2024-01-15T03:02:28;4.00;;;3.60;;
51612;SDS011;37694;51.748;14.326;2024-01-15T03:04:56;3.65;;;3.35;;
51612;SDS011;37694;51.748;14.326;2024-01-15T03:07:22;3.78;;;3.40;;
51612;SDS011;37694;51.748;14.326;2024-01-15T03:09:48;3.80;;;3.50;;
51612;SDS011;37694;51.748;14.326;2024-01-15T03:12:13;3.72;;;3.30;;
51612;SDS011;37694;51.748;14.326;2024-01-15T03:14:39;4.32;;;3.92;;
51612;SDS011;37694;51.748;14.326;2024-01-15T03:17:05;3.85;;;3.28;;
51612;SDS011;37694;51.748;14.326;2024-01-15T03:19:31;3.85;;;3.45;;
51612;SDS011;37694;51.748;14.326;2024-01-15T03:22:00;4.05;;;3.65;;
51612;SDS011;37694;51.748;14.326;2024-01-15T03:24:27;3.30;;;3.00;;
51612;SDS011;37694;51.748;14.326;2024-01-15T03:26:53;4.30;;;3.90;;
51612;SDS011;37694;51.748;14.326;2024-01-15T03:29:18;4.55;;;3.50;;
51612;SDS011;37694;51.748;14.326;2024-01-15T03:31:44;3.78;;;3.40;;
51612;SDS011;37694;51.748;14.326;2024-01-15T03:34:10;3.80;;;3.50;;
51612;SDS011;37694;51.748;14.326;2024-01-15T03:36:36;4.00;;;3.22;;
51612;SDS011;37694;51.748;14.326;2024-01-15T03:39:01;3.85;;;3.45;;
51612;SDS011;37694;51.748;14.326;2024-01-15T03:41:27;3.47;;;3.17;;
51612;SDS011;37694;51.748;14.326;2024-01-15T03:43:53;3.75;;;3.35;;
51612;SDS011;37694;51.748;14.326;2024-01-15T03:46:18;3.08;;;2.88;;
51612;SDS011;37694;51.748;14.326;2024-01-15T03:48:44;3.75;;;3.45;;
51612;SDS011;37694;51.748;14.326;2024-01-15T03:51:09;4.00;;;3.55;;
51612;SDS011;37694;51.748;14.326;2024-01-15T03:53:35;4.00;;;3.65;;
51612;SDS011;37694;51.748;14.326;2024-01-15T03:56:02;3.63;;;3.33;;
51612;SDS011;37694;51.748;14.326;2024-01-15T03:58:28;3.65;;;3.35;;
51612;SDS011;37694;51.748;14.326;2024-01-15T04:00:54;3.78;;;3.47;;
51612;SDS011;37694;51.748;14.326;2024-01-15T04:03:20;3.72;;;3.42;;
51612;SDS011;37694;51.748;14.326;2024-01-15T04:05:45;3.47;;;3.15;;
51612;SDS011;37694;51.748;14.326;2024-01-15T04:08:11;3.60;;;3.30;;
51612;SDS011;37694;51.748;14.326;2024-01-15T04:10:36;3.42;;;3.13;;
51612;SDS011;37694;51.748;14.326;2024-01-15T04:13:02;3.60;;;3.30;;
51612;SDS011;37694;51.748;14.326;2024-01-15T04:15:28;3.58;;;3.20;;
51612;SDS011;37694;51.748;14.326;2024-01-15T04:17:54;4.35;;;3.95;;
51612;SDS011;37694;51.748;14.326;2024-01-15T04:20:20;3.22;;;2.90;;
51612;SDS011;37694;51.748;14.326;2024-01-15T04:22:45;3.28;;;2.97;;
51612;SDS011;37694;51.748;14.326;2024-01-15T04:25:11;3.33;;;3.08;;
51612;SDS011;37694;51.748;14.326;2024-01-15T04:27:36;3.50;;;3.20;;
51612;SDS011;37694;51.748;14.326;2024-01-15T04:30:02;4.60;;;3.03;;
51612;SDS011;37694;51.748;14.326;2024-01-15T04:32:28;3.40;;;3.10;;
51612;SDS011;37694;51.748;14.326;2024-01-15T04:34:54;5.00;;;2.80;;
51612;SDS011;37694;51.748;14.326;2024-01-15T04:37:20;2.90;;;2.55;;
51612;SDS011;37694;51.748;14.326;2024-01-15T04:39:46;3.28;;;3.00;;
51612;SDS011;37694;51.748;14.326;2024-01-15T04:42:11;3.03;;;2.63;;
51612;SDS011;37694;51.748;14.326;2024-01-15T04:44:37;2.83;;;2.60;;
51612;SDS011;37694;51.748;14.326;2024-01-15T04:47:03;2.75;;;2.55;;
51612;SDS011;37694;51.748;14.326;2024-01-15T04:49:28;5.03;;;2.72;;
51612;SDS011;37694;51.748;14.326;2024-01-15T04:51:55;3.78;;;3.15;;
51612;SDS011;37694;51.748;14.326;2024-01-15T04:54:20;2.80;;;2.60;;
51612;SDS011;37694;51.748;14.326;2024-01-15T04:56:46;2.90;;;2.70;;
51612;SDS011;37694;51.748;14.326;2024-01-15T04:59:11;2.88;;;2.67;;
51612;SDS011;37694;51.748;14.326;2024-01-15T05:01:39;2.80;;;2.60;;
51612;SDS011;37694;51.748;14.326;2024-01-15T05:04:05;3.00;;;2.70;;
51612;SDS011;37694;51.748;14.326;2024-01-15T05:06:31;2.67;;;2.47;;
51612;SDS011;37694;51.748;14.326;2024-01-15T05:08:56;2.50;;;2.30;;
51612;SDS011;37694;51.748;14.326;2024-01-15T05:11:22;2.80;;;2.60;;
51612;SDS011;37694;51.748;14.326;2024-01-15T05:13:48;2.60;;;2.40;;
51612;SDS011;37694;51.748;14.326;2024-01-15T05:16:13;2.92;;;2.63;;
51612;SDS011;37694;51.748;14.326;2024-01-15T05:18:39;3.55;;;2.60;;
51612;SDS011;37694;51.748;14.326;2024-01-15T05:21:05;2.40;;;2.20;;
51612;SDS011;37694;51.748;14.326;2024-01-15T05:23:31;2.40;;;2.20;;
51612;SDS011;37694;51.748;14.326;2024-01-15T05:25:57;2.95;;;2.75;;
51612;SDS011;37694;51.748;14.326;2024-01-15T05:28:22;3.13;;;2.45;;
51612;SDS011;37694;51.748;14.326;2024-01-15T05:30:48;2.45;;;2.25;;
51612;SDS011;37694;51.748;14.326;2024-01-15T05:33:15;2.50;;;2.30;;
51612;SDS011;37694;51.748;14.326;2024-01-15T05:35:41;2.70;;;2.50;;
51612;SDS011;37694;51.748;14.326;2024-01-15T05:38:07;2.47;;;2.22;;
51612;SDS011;37694;51.748;14.326;2024-01-15T05:40:33;1.98;;;1.88;;
51612;SDS011;37694;51.748;14.326;2024-01-15T05:42:59;3.03;;;2.72;;
51612;SDS011;37694;51.748;14.326;2024-01-15T05:45:27;2.70;;;2.50;;
51612;SDS011;37694;51.748;14.326;2024-01-15T05:47:54;2.67;;;2.30;;
51612;SDS011;37694;51.748;14.326;2024-01-15T05:50:20;2.50;;;2.30;;
51612;SDS011;37694;51.748;14.326;2024-01-15T05:52:47;2.78;;;2.58;;
51612;SDS011;37694;51.748;14.326;2024-01-15T05:55:13;3.00;;;2.30;;
51612;SDS011;37694;51.748;14.326;2024-01-15T05:57:38;3.90;;;2.60;;
51612;SDS011;37694;51.748;14.326;2024-01-15T06:00:04;4.65;;;2.40;;
51612;SDS011;37694;51.748;14.326;2024-01-15T06:02:30;2.92;;;2.25;;
51612;SDS011;37694;51.748;14.326;2024-01-15T06:04:56;8.07;;;2.65;;
51612;SDS011;37694;51.748;14.326;2024-01-15T06:07:22;6.65;;;2.25;;
51612;SDS011;37694;51.748;14.326;2024-01-15T06:09:48;4.00;;;2.50;;
51612;SDS011;37694;51.748;14.326;2024-01-15T06:12:14;2.60;;;2.30;;
51612;SDS011;37694;51.748;14.326;2024-01-15T06:14:40;11.05;;;2.65;;
51612;SDS011;37694;51.748;14.326;2024-01-15T06:17:06;13.90;;;2.67;;
51612;SDS011;37694;51.748;14.326;2024-01-15T06:19:32;6.32;;;2.42;;
51612;SDS011;37694;51.748;14.326;2024-01-15T06:21:57;11.35;;;3.08;;
51612;SDS011;37694;51.748;14.326;2024-01-15T06:24:23;6.28;;;2.78;;
51612;SDS011;37694;51.748;14.326;2024-01-15T06:26:49;8.43;;;2.67;;
51612;SDS011;37694;51.748;14.326;2024-01-15T06:29:14;16.08;;;3.40;;
51612;SDS011;37694;51.748;14.326;2024-01-15T06:31:40;6.95;;;3.42;;
51612;SDS011;37694;51.748;14.326;2024-01-15T06:34:06;22.33;;;3.88;;
51612;SDS011;37694;51.748;14.326;2024-01-15T06:36:32;9.38;;;3.28;;
51612;SDS011;37694;51.748;14.326;2024-01-15T06:38:57;16.27;;;3.40;;
51612;SDS011;37694;51.748;14.326;2024-01-15T06:41:23;11.98;;;3.13;;
51612;SDS011;37694;51.748;14.326;2024-01-15T06:43:50;12.65;;;4.00;;
51612;SDS011;37694;51.748;14.326;2024-01-15T06:46:22;12.45;;;3.55;;
51612;SDS011;37694;51.748;14.326;2024-01-15T06:48:48;11.68;;;3.67;;
51612;SDS011;37694;51.748;14.326;2024-01-15T06:51:15;15.07;;;4.07;;
51612;SDS011;37694;51.748;14.326;2024-01-15T06:53:41;20.52;;;3.75;;
51612;SDS011;37694;51.748;14.326;2024-01-15T06:56:07;17.85;;;4.25;;
51612;SDS011;37694;51.748;14.326;2024-01-15T06:58:33;13.07;;;4.70;;
51612;SDS011;37694;51.748;14.326;2024-01-15T07:00:58;19.45;;;4.60;;
51612;SDS011;37694;51.748;14.326;2024-01-15T07:03:24;21.42;;;6.15;;
51612;SDS011;37694;51.748;14.326;2024-01-15T07:05:50;14.52;;;5.38;;
51612;SDS011;37694;51.748;14.326;2024-01-15T07:08:16;12.57;;;6.22;;
51612;SDS011;37694;51.748;14.326;2024-01-15T07:10:41;9.60;;;5.85;;
51612;SDS011;37694;51.748;14.326;2024-01-15T07:13:07;10.88;;;5.70;;
51612;SDS011;37694;51.748;14.326;2024-01-15T07:15:33;6.45;;;4.65;;
51612;SDS011;37694;51.748;14.326;2024-01-15T07:17:59;10.95;;;5.03;;
51612;SDS011;37694;51.748;14.326;2024-01-15T07:20:25;10.77;;;4.30;;
51612;SDS011;37694;51.748;14.326;2024-01-15T07:22:50;14.32;;;4.20;;
51612;SDS011;37694;51.748;14.326;2024-01-15T07:25:16;6.22;;;3.47;;
51612;SDS011;37694;51.748;14.326;2024-01-15T07:27:42;8.40;;;3.75;;
51612;SDS011;37694;51.748;14.326;2024-01-15T07:30:10;7.18;;;3.45;;
51612;SDS011;37694;51.748;14.326;2024-01-15T07:32:39;11.32;;;3.17;;
51612;SDS011;37694;51.748;14.326;2024-01-15T07:35:05;6.32;;;3.60;;
51612;SDS011;37694;51.748;14.326;2024-01-15T07:37:31;14.02;;;3.88;;
51612;SDS011;37694;51.748;14.326;2024-01-15T07:39:58;8.57;;;3.97;;
51612;SDS011;37694;51.748;14.326;2024-01-15T07:42:24;3.63;;;3.20;;
51612;SDS011;37694;51.748;14.326;2024-01-15T07:44:50;5.78;;;3.70;;
51612;SDS011;37694;51.748;14.326;2024-01-15T07:47:16;6.30;;;3.22;;
51612;SDS011;37694;51.748;14.326;2024-01-15T07:49:42;6.55;;;3.22;;
51612;SDS011;37694;51.748;14.326;2024-01-15T07:52:08;4.10;;;2.88;;
51612;SDS011;37694;51.748;14.326;2024-01-15T07:54:35;5.10;;;3.72;;
51612;SDS011;37694;51.748;14.326;2024-01-15T07:57:01;5.38;;;3.22;;
51612;SDS011;37694;51.748;14.326;2024-01-15T07:59:30;7.00;;;3.92;;
51612;SDS011;37694;51.748;14.326;2024-01-15T08:01:58;5.85;;;3.65;;
51612;SDS011;37694;51.748;14.326;2024-01-15T08:04:24;4.32;;;3.20;;
51612;SDS011;37694;51.748;14.326;2024-01-15T08:06:50;7.80;;;3.42;;
51612;SDS011;37694;51.748;14.326;2024-01-15T08:09:16;4.85;;;3.15;;
51612;SDS011;37694;51.748;14.326;2024-01-15T08:11:42;4.63;;;3.13;;
51612;SDS011;37694;51.748;14.326;2024-01-15T08:14:11;7.10;;;3.50;;
51612;SDS011;37694;51.748;14.326;2024-01-15T08:16:37;5.70;;;3.22;;
51612;SDS011;37694;51.748;14.326;2024-01-15T08:19:03;4.45;;;2.92;;
51612;SDS011;37694;51.748;14.326;2024-01-15T08:21:28;7.35;;;3.20;;
51612;SDS011;37694;51.748;14.326;2024-01-15T08:23:58;8.38;;;4.07;;
51612;SDS011;37694;51.748;14.326;2024-01-15T08:26:25;8.40;;;4.55;;
51612;SDS011;37694;51.748;14.326;2024-01-15T08:28:50;6.88;;;4.47;;
51612;SDS011;37694;51.748;14.326;2024-01-15T08:31:16;14.32;;;5.47;;
51612;SDS011;37694;51.748;14.326;2024-01-15T08:33:42;15.65;;;4.85;;
51612;SDS011;37694;51.748;14.326;2024-01-15T08:36:09;10.07;;;4.38;;
51612;SDS011;37694;51.748;14.326;2024-01-15T08:38:35;7.07;;;4.30;;
51612;SDS011;37694;51.748;14.326;2024-01-15T08:41:00;8.63;;;3.97;;
51612;SDS011;37694;51.748;14.326;2024-01-15T08:43:26;6.55;;;3.70;;
51612;SDS011;37694;51.748;14.326;2024-01-15T08:45:52;7.88;;;4.15;;
51612;SDS011;37694;51.748;14.326;2024-01-15T08:48:18;9.25;;;4.00;;
51612;SDS011;37694;51.748;14.326;2024-01-15T08:50:44;7.75;;;3.95;;
51612;SDS011;37694;51.748;14.326;2024-01-15T08:53:13;9.02;;;4.30;;
51612;SDS011;37694;51.748;14.326;2024-01-15T08:55:39;10.95;;;4.13;;
51612;SDS011;37694;51.748;14.326;2024-01-15T08:58:05;8.50;;;4.22;;
51612;SDS011;37694;51.748;14.326;2024-01-15T09:00:31;10.68;;;3.85;;
51612;SDS011;37694;51.748;14.326;2024-01-15T09:02:57;5.90;;;3.88;;
51612;SDS011;37694;51.748;14.326;2024-01-15T09:05:22;6.30;;;3.90;;
51612;SDS011;37694;51.748;14.326;2024-01-15T09:07:48;4.55;;;3.72;;
51612;SDS011;37694;51.748;14.326;2024-01-15T09:10:16;11.93;;;4.40;;
51612;SDS011;37694;51.748;14.326;2024-01-15T09:12:42;10.00;;;4.20;;
51612;SDS011;37694;51.748;14.326;2024-01-15T09:15:07;12.63;;;3.97;;
51612;SDS011;37694;51.748;14.326;2024-01-15T09:17:33;6.15;;;3.50;;
51612;SDS011;37694;51.748;14.326;2024-01-15T09:19:59;8.43;;;4.20;;
51612;SDS011;37694;51.748;14.326;2024-01-15T09:22:25;6.13;;;3.80;;
51612;SDS011;37694;51.748;14.326;2024-01-15T09:24:51;7.60;;;3.90;;
51612;SDS011;37694;51.748;14.326;2024-01-15T09:27:17;7.82;;;4.00;;
51612;SDS011;37694;51.748;14.326;2024-01-15T09:29:43;5.85;;;3.35;;
51612;SDS011;37694;51.748;14.326;2024-01-15T09:32:10;6.30;;;4.00;;
51612;SDS011;37694;51.748;14.326;2024-01-15T09:34:37;4.85;;;3.63;;
51612;SDS011;37694;51.748;14.326;2024-01-15T09:37:03;5.47;;;3.70;;
51612;SDS011;37694;51.748;14.326;2024-01-15T09:39:29;11.35;;;4.57;;
51612;SDS011;37694;51.748;14.326;2024-01-15T09:41:56;5.38;;;3.33;;
51612;SDS011;37694;51.748;14.326;2024-01-15T09:44:22;6.45;;;4.00;;
51612;SDS011;37694;51.748;14.326;2024-01-15T09:46:48;4.30;;;3.90;;
51612;SDS011;37694;51.748;14.326;2024-01-15T09:49:15;6.75;;;3.67;;
51612;SDS011;37694;51.748;14.326;2024-01-15T09:51:42;6.72;;;3.70;;
51612;SDS011;37694;51.748;14.326;2024-01-15T09:54:08;5.40;;;3.53;;
51612;SDS011;37694;51.748;14.326;2024-01-15T09:56:34;5.40;;;3.42;;
51612;SDS011;37694;51.748;14.326;2024-01-15T09:59:00;5.40;;;3.35;;
51612;SDS011;37694;51.748;14.326;2024-01-15T10:01:29;10.82;;;3.72;;
51612;SDS011;37694;51.748;14.326;2024-01-15T10:03:57;9.48;;;3.35;;
51612;SDS011;37694;51.748;14.326;2024-01-15T10:06:23;7.35;;;3.05;;
51612;SDS011;37694;51.748;14.326;2024-01-15T10:08:56;7.70;;;3.53;;
51612;SDS011;37694;51.748;14.326;2024-01-15T10:11:25;4.28;;;2.78;;
51612;SDS011;37694;51.748;14.326;2024-01-15T10:13:51;5.20;;;3.65;;
51612;SDS011;37694;51.748;14.326;2024-01-15T10:16:21;7.47;;;3.40;;
51612;SDS011;37694;51.748;14.326;2024-01-15T10:18:47;5.20;;;3.45;;
51612;SDS011;37694;51.748;14.326;2024-01-15T10:21:13;4.82;;;3.03;;
51612;SDS011;37694;51.748;14.326;2024-01-15T10:23:39;13.00;;;3.35;;
51612;SDS011;37694;51.748;14.326;2024-01-15T10:26:05;11.75;;;3.13;;
51612;SDS011;37694;51.748;14.326;2024-01-15T10:28:30;10.10;;;3.03;;
51612;SDS011;37694;51.748;14.326;2024-01-15T10:30:57;9.65;;;2.75;;
51612;SDS011;37694;51.748;14.326;2024-01-15T10:33:26;5.38;;;3.08;;
51612;SDS011;37694;51.748;14.326;2024-01-15T10:35:56;4.32;;;3.13;;
51612;SDS011;37694;51.748;14.326;2024-01-15T10:38:23;5.68;;;3.33;;
51612;SDS011;37694;51.748;14.326;2024-01-15T10:40:53;7.38;;;3.88;;
51612;SDS011;37694;51.748;14.326;2024-01-15T10:43:19;5.93;;;3.35;;
51612;SDS011;37694;51.748;14.326;2024-01-15T10:45:46;4.75;;;2.85;;
51612;SDS011;37694;51.748;14.326;2024-01-15T10:48:12;4.95;;;3.15;;
51612;SDS011;37694;51.748;14.326;2024-01-15T10:50:38;8.70;;;3.35;;
51612;SDS011;37694;51.748;14.326;2024-01-15T10:53:05;6.72;;;2.80;;
51612;SDS011;37694;51.748;14.326;2024-01-15T10:55:31;6.43;;;2.90;;
51612;SDS011;37694;51.748;14.326;2024-01-15T10:57:58;8.77;;;3.22;;
51612;SDS011;37694;51.748;14.326;2024-01-15T11:00:25;4.47;;;2.90;;
51612;SDS011;37694;51.748;14.326;2024-01-15T11:02:52;6.35;;;3.20;;
51612;SDS011;37694;51.748;14.326;2024-01-15T11:05:20;3.72;;;2.55;;
51612;SDS011;37694;51.748;14.326;2024-01-15T11:07:49;9.52;;;3.15;;
51612;SDS011;37694;51.748;14.326;2024-01-15T11:13:03;8.02;;;3.28;;
51612;SDS011;37694;51.748;14.326;2024-01-15T11:15:30;4.05;;;3.00;;
51612;SDS011;37694;51.748;14.326;2024-01-15T11:17:59;7.65;;;2.58;;
51612;SDS011;37694;51.748;14.326;2024-01-15T11:20:27;5.78;;;2.92;;
51612;SDS011;37694;51.748;14.326;2024-01-15T11:22:52;3.25;;;2.50;;
51612;SDS011;37694;51.748;14.326;2024-01-15T11:25:18;5.45;;;2.53;;
51612;SDS011;37694;51.748;14.326;2024-01-15T11:27:49;6.40;;;2.70;;
51612;SDS011;37694;51.748;14.326;2024-01-15T11:30:20;4.10;;;2.78;;
51612;SDS011;37694;51.748;14.326;2024-01-15T11:32:50;5.70;;;2.80;;
51612;SDS011;37694;51.748;14.326;2024-01-15T11:35:16;5.90;;;2.63;;
51612;SDS011;37694;51.748;14.326;2024-01-15T11:40:58;4.68;;;2.75;;
51612;SDS011;37694;51.748;14.326;2024-01-15T11:43:08;6.07;;;2.83;;
51612;SDS011;37694;51.748;14.326;2024-01-15T11:45:34;3.20;;;2.47;;
51612;SDS011;37694;51.748;14.326;2024-01-15T11:50:50;3.17;;;2.42;;
51612;SDS011;37694;51.748;14.326;2024-01-15T11:53:40;6.68;;;2.42;;
51612;SDS011;37694;51.748;14.326;2024-01-15T11:56:11;4.50;;;2.75;;
51612;SDS011;37694;51.748;14.326;2024-01-15T11:58:40;3.83;;;2.42;;
51612;SDS011;37694;51.748;14.326;2024-01-15T12:01:06;8.30;;;2.47;;
51612;SDS011;37694;51.748;14.326;2024-01-15T12:03:32;3.13;;;2.15;;
51612;SDS011;37694;51.748;14.326;2024-01-15T12:05:59;5.07;;;2.42;;
51612;SDS011;37694;51.748;14.326;2024-01-15T12:08:25;5.47;;;2.17;;
51612;SDS011;37694;51.748;14.326;2024-01-15T12:10:52;8.48;;;2.60;;
51612;SDS011;37694;51.748;14.326;2024-01-15T12:13:18;4.13;;;2.40;;
51612;SDS011;37694;51.748;14.326;2024-01-15T12:15:45;3.83;;;2.45;;
51612;SDS011;37694;51.748;14.326;2024-01-15T12:18:13;7.28;;;2.70;;
51612;SDS011;37694;51.748;14.326;2024-01-15T12:20:40;3.65;;;2.42;;
51612;SDS011;37694;51.748;14.326;2024-01-15T12:23:07;4.40;;;2.17;;
51612;SDS011;37694;51.748;14.326;2024-01-15T12:25:33;3.55;;;2.22;;
51612;SDS011;37694;51.748;14.326;2024-01-15T12:28:00;3.38;;;2.70;;
51612;SDS011;37694;51.748;14.326;2024-01-15T12:30:26;3.65;;;2.45;;
51612;SDS011;37694;51.748;14.326;2024-01-15T12:32:52;3.10;;;2.45;;
51612;SDS011;37694;51.748;14.326;2024-01-15T12:35:18;6.35;;;2.42;;
51612;SDS011;37694;51.748;14.326;2024-01-15T12:37:44;5.45;;;2.17;;
51612;SDS011;37694;51.748;14.326;2024-01-15T12:40:13;5.07;;;2.60;;
51612;SDS011;37694;51.748;14.326;2024-01-15T12:42:43;3.78;;;2.03;;
51612;SDS011;37694;51.748;14.326;2024-01-15T12:45:09;3.33;;;1.88;;
51612;SDS011;37694;51.748;14.326;2024-01-15T12:47:36;6.25;;;2.28;;
51612;SDS011;37694;51.748;14.326;2024-01-15T12:50:02;4.72;;;1.98;;
51612;SDS011;37694;51.748;14.326;2024-01-15T12:52:31;2.53;;;1.83;;
51612;SDS011;37694;51.748;14.326;2024-01-15T12:54:58;5.13;;;1.85;;
51612;SDS011;37694;51.748;14.326;2024-01-15T12:57:23;3.33;;;1.80;;
51612;SDS011;37694;51.748;14.326;2024-01-15T12:59:49;3.85;;;2.00;;
51612;SDS011;37694;51.748;14.326;2024-01-15T13:02:15;2.60;;;1.92;;
51612;SDS011;37694;51.748;14.326;2024-01-15T13:04:41;2.85;;;2.47;;
51612;SDS011;37694;51.748;14.326;2024-01-15T13:07:07;2.50;;;2.05;;
51612;SDS011;37694;51.748;14.326;2024-01-15T13:09:33;2.08;;;1.90;;
51612;SDS011;37694;51.748;14.326;2024-01-15T13:12:00;2.67;;;2.20;;
51612;SDS011;37694;51.748;14.326;2024-01-15T13:14:29;3.58;;;2.20;;
51612;SDS011;37694;51.748;14.326;2024-01-15T13:16:55;2.08;;;1.67;;
51612;SDS011;37694;51.748;14.326;2024-01-15T13:19:21;2.63;;;1.90;;
51612;SDS011;37694;51.748;14.326;2024-01-15T13:21:47;2.75;;;2.17;;
51612;SDS011;37694;51.748;14.326;2024-01-15T13:24:13;4.22;;;2.03;;
51612;SDS011;37694;51.748;14.326;2024-01-15T13:26:39;4.10;;;1.90;;
51612;SDS011;37694;51.748;14.326;2024-01-15T13:29:05;2.83;;;1.90;;
51612;SDS011;37694;51.748;14.326;2024-01-15T13:31:32;3.75;;;1.90;;
51612;SDS011;37694;51.748;14.326;2024-01-15T13:33:58;7.90;;;1.95;;
51612;SDS011;37694;51.748;14.326;2024-01-15T13:36:24;2.42;;;1.67;;
51612;SDS011;37694;51.748;14.326;2024-01-15T13:38:53;6.38;;;2.15;;
51612;SDS011;37694;51.748;14.326;2024-01-15T13:41:22;19.75;;;1.90;;
51612;SDS011;37694;51.748;14.326;2024-01-15T13:43:52;9.77;;;2.33;;
51612;SDS011;37694;51.748;14.326;2024-01-15T13:46:19;7.10;;;2.05;;
51612;SDS011;37694;51.748;14.326;2024-01-15T13:48:46;6.30;;;2.30;;
51612;SDS011;37694;51.748;14.326;2024-01-15T13:51:12;5.80;;;1.90;;
51612;SDS011;37694;51.748;14.326;2024-01-15T13:53:38;5.13;;;2.40;;
51612;SDS011;37694;51.748;14.326;2024-01-15T13:56:05;7.90;;;2.50;;
51612;SDS011;37694;51.748;14.326;2024-01-15T13:58:31;7.80;;;2.22;;
51612;SDS011;37694;51.748;14.326;2024-01-15T14:00:58;29.35;;;15.38;;
51612;SDS011;37694;51.748;14.326;2024-01-15T14:03:24;20.27;;;11.55;;
51612;SDS011;37694;51.748;14.326;2024-01-15T14:05:50;23.33;;;13.43;;
51612;SDS011;37694;51.748;14.326;2024-01-15T14:08:17;31.27;;;21.48;;
51612;SDS011;37694;51.748;14.326;2024-01-15T14:10:42;53.03;;;34.75;;
51612;SDS011;37694;51.748;14.326;2024-01-15T14:13:08;99.07;;;65.95;;
51612;SDS011;37694;51.748;14.326;2024-01-15T14:15:34;75.55;;;44.35;;
51612;SDS011;37694;51.748;14.326;2024-01-15T14:18:00;96.70;;;67.50;;
51612;SDS011;37694;51.748;14.326;2024-01-15T14:20:26;82.95;;;53.30;;
51612;SDS011;37694;51.748;14.326;2024-01-15T14:22:52;37.40;;;24.08;;
51612;SDS011;37694;51.748;14.326;2024-01-15T14:25:19;34.67;;;24.23;;
51612;SDS011;37694;51.748;14.326;2024-01-15T14:27:45;41.17;;;25.95;;
51612;SDS011;37694;51.748;14.326;2024-01-15T14:30:11;30.23;;;21.67;;
51612;SDS011;37694;51.748;14.326;2024-01-15T14:32:38;33.97;;;21.38;;
51612;SDS011;37694;51.748;14.326;2024-01-15T14:35:04;27.05;;;17.75;;
51612;SDS011;37694;51.748;14.326;2024-01-15T14:37:30;25.70;;;18.48;;
51612;SDS011;37694;51.748;14.326;2024-01-15T14:39:56;33.75;;;20.27;;